Time;durP1;ratioP1;P1;durP2;ratioP2;P2;SDS_P1;SDS_P2;PMS_P1;PMS_P2;Temp;Humidity;BMP_temperature;BMP_pressure;BME280_temperature;BME280_humidity;BME280_pressure;Samples;Min_cycle;Max_cycle;Signal;HPM_P1;HPM_P2
2024/01/09 00:00:27;;;;;;;;;;;-2.60;79.90;;;;;;4125950;28;19922;-82
2024/01/09 00:02:27;;;;;;;;;;;-2.60;80.00;;;;;;4097749;28;19929;-81
2024/01/09 00:04:28;;;;;;;;;;;-2.70;80.00;;;;;;4094771;28;20409;-81
2024/01/09 00:06:29;;;;;;;;;;;-2.60;80.10;;;;;;4077798;29;19929;-81
2024/01/09 00:08:30;;;;;;;;;;;-2.60;80.10;;;;;;4124202;28;19928;-82
2024/01/09 00:10:51;;;;;;;;;;;-2.60;80.10;;;;;;4107711;28;19981;-81
2024/01/09 00:12:55;;;;;;;;;;;-2.70;79.90;;;;;;4120017;28;20376;-81
2024/01/09 00:14:56;;;;;;;;;;;-2.70;80.00;;;;;;4093738;28;19921;-82
2024/01/09 00:17:00;;;;;;;;;;;-2.70;80.00;;;;;;4122422;28;19953;-81
2024/01/09 00:19:12;;;;;;;;;;;-2.70;80.10;;;;;;4092808;28;19961;-82
2024/01/09 00:21:33;;;;;;;;;;;-2.70;80.10;;;;;;4102159;28;19918;-82
2024/01/09 00:23:53;;;;;;;;;;;-2.70;80.00;;;;;;4120459;28;19921;-82
2024/01/09 00:26:14;;;;;;;;;;;-2.70;80.30;;;;;;4092412;28;19926;-82
2024/01/09 00:28:34;;;;;;;;;;;-2.70;80.40;;;;;;4097946;28;19931;-82
2024/01/09 00:30:55;;;;;;;;;;;-2.80;80.50;;;;;;4092026;28;19914;-82
2024/01/09 00:33:15;;;;;;;;;;;-2.80;80.70;;;;;;4098378;28;20431;-82
2024/01/09 00:35:36;;;;;;;;;;;-2.80;80.80;;;;;;4096050;28;19922;-82
2024/01/09 00:37:56;;;;;;;;;;;-2.80;80.80;;;;;;4093996;28;19965;-81
2024/01/09 00:40:17;;;;;;;;;;;-2.80;81.20;;;;;;4094496;28;19950;-82
2024/01/09 00:42:37;;;;;;;;;;;-2.80;81.20;;;;;;4092883;28;19950;-83
2024/01/09 00:45:00;;;;;;;;;;;-2.80;81.10;;;;;;4096747;28;19929;-82
2024/01/09 00:47:21;;;;;;;;;;;-2.80;80.70;;;;;;4103919;28;19926;-83
2024/01/09 00:49:44;;;;;;;;;;;-2.80;80.60;;;;;;4094035;28;19919;-83
2024/01/09 00:52:05;;;;;;;;;;;-2.80;80.60;;;;;;4091534;28;19965;-81
2024/01/09 00:54:25;;;;;;;;;;;-2.80;80.60;;;;;;4092968;28;19918;-82
2024/01/09 00:56:46;;;;;;;;;;;-2.80;80.60;;;;;;4093189;28;19915;-82
2024/01/09 00:59:07;;;;;;;;;;;-2.80;80.50;;;;;;4088158;28;19960;-83
2024/01/09 01:01:27;;;;;;;;;;;-2.80;80.60;;;;;;4093311;28;19965;-83
2024/01/09 01:03:47;;;;;;;;;;;-2.80;80.60;;;;;;4090452;28;19922;-82
2024/01/09 01:06:08;;;;;;;;;;;-2.80;80.70;;;;;;4093768;28;19949;-82
2024/01/09 01:08:28;;;;;;;;;;;-2.80;81.00;;;;;;4091641;28;19985;-82
2024/01/09 01:10:49;;;;;;;;;;;-2.80;81.20;;;;;;4094188;28;19915;-81
2024/01/09 01:13:09;;;;;;;;;;;-2.80;81.20;;;;;;4092966;28;19918;-82
2024/01/09 01:15:31;;;;;;;;;;;-2.80;81.10;;;;;;4092816;28;19915;-81
2024/01/09 01:17:51;;;;;;;;;;;-2.80;81.10;;;;;;4092900;28;20001;-82
2024/01/09 01:20:12;;;;;;;;;;;-2.80;81.10;;;;;;4092416;28;19998;-81
2024/01/09 01:22:32;;;;;;;;;;;-2.80;81.10;;;;;;4094752;28;19922;-81
2024/01/09 01:24:53;;;;;;;;;;;-2.80;81.00;;;;;;4094730;28;19982;-82
2024/01/09 01:27:13;;;;;;;;;;;-2.80;80.80;;;;;;4112457;28;19925;-80
2024/01/09 01:29:34;;;;;;;;;;;-2.80;80.80;;;;;;4113026;28;19903;-81
2024/01/09 01:31:54;;;;;;;;;;;-2.70;80.90;;;;;;4126733;28;19914;-82
2024/01/09 01:34:15;;;;;;;;;;;-2.70;80.80;;;;;;4090906;28;20021;-83
2024/01/09 01:36:35;;;;;;;;;;;-2.70;80.80;;;;;;4094524;28;19959;-82
2024/01/09 01:38:56;;;;;;;;;;;-2.70;80.60;;;;;;4091238;28;19918;-83
2024/01/09 01:40:56;;;;;;;;;;;-2.70;80.60;;;;;;4091419;28;20430;-80
2024/01/09 01:43:17;;;;;;;;;;;-2.70;80.60;;;;;;4090564;28;19925;-83
2024/01/09 01:45:37;;;;;;;;;;;-2.80;80.60;;;;;;4089306;28;19976;-81
2024/01/09 01:47:59;;;;;;;;;;;-2.80;80.50;;;;;;4104809;28;19937;-82
2024/01/09 01:50:20;;;;;;;;;;;-2.80;80.50;;;;;;4092409;28;19961;-81
2024/01/09 01:52:41;;;;;;;;;;;-2.80;80.50;;;;;;4105211;28;19923;-82
2024/01/09 01:55:02;;;;;;;;;;;-2.80;80.40;;;;;;4093225;28;19993;-82
2024/01/09 01:57:03;;;;;;;;;;;-2.80;80.50;;;;;;4123826;28;20005;-82
2024/01/09 01:59:05;;;;;;;;;;;-2.80;80.60;;;;;;4092231;28;19926;-81
2024/01/09 02:01:25;;;;;;;;;;;-2.80;80.70;;;;;;4095731;28;20290;-83
2024/01/09 02:03:46;;;;;;;;;;;-2.80;80.80;;;;;;4088912;28;19914;-81
2024/01/09 02:06:07;;;;;;;;;;;-2.80;80.80;;;;;;4093122;28;19926;-82
2024/01/09 02:08:28;;;;;;;;;;;-2.80;80.90;;;;;;4115385;28;19925;-81
2024/01/09 02:10:49;;;;;;;;;;;-2.80;80.80;;;;;;4088989;28;20227;-81
2024/01/09 02:13:09;;;;;;;;;;;-2.90;80.80;;;;;;4088373;28;19921;-81
2024/01/09 02:15:30;;;;;;;;;;;-2.80;80.80;;;;;;4089345;28;19921;-80
2024/01/09 02:17:51;;;;;;;;;;;-2.80;80.80;;;;;;4091613;28;19986;-83
2024/01/09 02:20:11;;;;;;;;;;;-2.80;80.80;;;;;;4092575;28;19953;-83
2024/01/09 02:22:32;;;;;;;;;;;-2.80;80.70;;;;;;4091639;28;19954;-82
2024/01/09 02:24:52;;;;;;;;;;;-2.90;80.70;;;;;;4091228;28;19918;-82
2024/01/09 02:27:33;;;;;;;;;;;-2.90;80.70;;;;;;4092194;28;19918;-82
2024/01/09 02:29:53;;;;;;;;;;;-2.90;80.50;;;;;;4104265;28;20371;-81
2024/01/09 02:32:15;;;;;;;;;;;-2.90;80.40;;;;;;4092858;28;19919;-81
2024/01/09 02:34:36;;;;;;;;;;;-2.90;80.50;;;;;;4090727;28;19961;-82
2024/01/09 02:36:57;;;;;;;;;;;-2.90;80.40;;;;;;4092674;28;19918;-81
2024/01/09 02:39:17;;;;;;;;;;;-2.90;80.50;;;;;;4094678;28;19941;-82
2024/01/09 02:41:38;;;;;;;;;;;-2.90;80.60;;;;;;4095771;28;20619;-81
2024/01/09 02:43:58;;;;;;;;;;;-2.90;80.60;;;;;;4106989;28;20376;-80
2024/01/09 02:46:19;;;;;;;;;;;-3.00;80.60;;;;;;4095810;28;19957;-79
2024/01/09 02:48:39;;;;;;;;;;;-3.00;80.50;;;;;;4092001;28;20388;-81
2024/01/09 02:51:00;;;;;;;;;;;-3.00;80.60;;;;;;4097241;28;19918;-82
2024/01/09 02:53:20;;;;;;;;;;;-2.90;80.70;;;;;;4097286;28;19910;-82
2024/01/09 02:55:41;;;;;;;;;;;-2.90;80.50;;;;;;4106861;28;19910;-83
2024/01/09 02:58:01;;;;;;;;;;;-3.00;80.50;;;;;;4096661;28;19919;-82
2024/01/09 03:00:22;;;;;;;;;;;-3.00;80.40;;;;;;4097218;28;20209;-82
2024/01/09 03:02:43;;;;;;;;;;;-3.00;80.30;;;;;;4096907;28;19911;-82
2024/01/09 03:05:04;;;;;;;;;;;-3.00;80.30;;;;;;4111472;28;19918;-83
2024/01/09 03:07:25;;;;;;;;;;;-3.00;80.30;;;;;;4097881;28;19922;-80
2024/01/09 03:09:46;;;;;;;;;;;-3.00;80.40;;;;;;4098594;28;19919;-82
2024/01/09 03:12:07;;;;;;;;;;;-3.00;80.30;;;;;;4106914;28;20351;-81
2024/01/09 03:14:27;;;;;;;;;;;-3.10;80.20;;;;;;4095229;28;19950;-82
2024/01/09 03:16:48;;;;;;;;;;;-3.10;80.20;;;;;;4118678;28;19971;-82
2024/01/09 03:19:09;;;;;;;;;;;-3.10;80.10;;;;;;4107658;28;19922;-81
2024/01/09 03:21:29;;;;;;;;;;;-3.10;80.10;;;;;;4118643;28;19929;-81
2024/01/09 03:23:50;;;;;;;;;;;-3.10;80.10;;;;;;4095902;28;19915;-81
2024/01/09 03:26:10;;;;;;;;;;;-3.10;80.10;;;;;;4102626;28;19917;-82
2024/01/09 03:28:31;;;;;;;;;;;-3.10;80.00;;;;;;4106309;28;19933;-82
2024/01/09 03:30:51;;;;;;;;;;;-3.10;80.00;;;;;;4092988;28;19918;-81
2024/01/09 03:33:12;;;;;;;;;;;-3.20;79.90;;;;;;4092466;28;20005;-81
2024/01/09 03:35:32;;;;;;;;;;;-3.20;79.90;;;;;;4090195;28;20009;-81
2024/01/09 03:37:53;;;;;;;;;;;-3.20;79.90;;;;;;4101491;28;19987;-82
2024/01/09 03:40:14;;;;;;;;;;;-3.20;79.90;;;;;;4090729;28;20014;-80
2024/01/09 03:42:33;;;;;;;;;;;-3.20;79.90;;;;;;4093971;28;19965;-82
2024/01/09 03:44:52;;;;;;;;;;;-3.20;79.90;;;;;;4097302;28;19930;-81
2024/01/09 03:47:12;;;;;;;;;;;-3.30;79.70;;;;;;4092894;28;19988;-82
2024/01/09 03:49:31;;;;;;;;;;;-3.20;79.80;;;;;;4119147;28;19969;-82
2024/01/09 03:51:50;;;;;;;;;;;-3.30;80.30;;;;;;4093860;28;20322;-82
2024/01/09 03:54:10;;;;;;;;;;;-3.40;79.50;;;;;;4107599;28;19945;-81
2024/01/09 03:56:29;;;;;;;;;;;-3.40;79.50;;;;;;4091804;28;19929;-81
2024/01/09 03:58:48;;;;;;;;;;;-3.40;79.40;;;;;;4093990;28;19929;-82
2024/01/09 04:01:07;;;;;;;;;;;-3.50;79.30;;;;;;4092442;28;19947;-81
2024/01/09 04:03:27;;;;;;;;;;;-3.50;79.20;;;;;;4091873;28;19981;-82
2024/01/09 04:05:46;;;;;;;;;;;-3.50;79.90;;;;;;4092722;28;19921;-82
2024/01/09 04:08:05;;;;;;;;;;;-3.40;80.00;;;;;;4093234;28;19963;-82
2024/01/09 04:10:24;;;;;;;;;;;-3.60;79.90;;;;;;4107112;28;19925;-81
2024/01/09 04:12:43;;;;;;;;;;;-3.70;79.10;;;;;;4105560;28;19922;-81
2024/01/09 04:15:03;;;;;;;;;;;-3.70;79.20;;;;;;4094876;28;19929;-81
2024/01/09 04:17:22;;;;;;;;;;;-3.70;79.30;;;;;;4089749;28;19932;-84
2024/01/09 04:19:41;;;;;;;;;;;-3.70;79.20;;;;;;4105665;28;19920;-83
2024/01/09 04:22:00;;;;;;;;;;;-3.80;79.90;;;;;;4094990;28;19924;-83
2024/01/09 04:24:20;;;;;;;;;;;-3.80;79.20;;;;;;4115877;28;19924;-82
2024/01/09 04:26:39;;;;;;;;;;;-3.80;79.10;;;;;;4093109;28;20037;-82
2024/01/09 04:28:58;;;;;;;;;;;-3.80;79.20;;;;;;4091105;28;20083;-80
2024/01/09 04:31:18;;;;;;;;;;;-3.90;79.10;;;;;;4094017;28;19925;-83
2024/01/09 04:33:37;;;;;;;;;;;-3.90;79.90;;;;;;4092803;28;19925;-83
2024/01/09 04:35:57;;;;;;;;;;;-3.90;79.10;;;;;;4105292;28;19968;-82
2024/01/09 04:38:16;;;;;;;;;;;-4.00;79.70;;;;;;4089492;28;20068;-81
2024/01/09 04:40:36;;;;;;;;;;;-4.00;79.00;;;;;;4090467;28;20408;-79
2024/01/09 04:42:55;;;;;;;;;;;-4.00;79.10;;;;;;4091905;28;20337;-80
2024/01/09 04:45:14;;;;;;;;;;;-4.00;79.10;;;;;;4091972;28;21582;-79
2024/01/09 04:47:33;;;;;;;;;;;-4.10;79.00;;;;;;4091580;29;20029;-83
2024/01/09 04:49:53;;;;;;;;;;;-4.10;79.70;;;;;;4091811;28;20324;-81
2024/01/09 04:52:12;;;;;;;;;;;-4.10;79.00;;;;;;4106323;28;19921;-82
2024/01/09 04:54:31;;;;;;;;;;;-4.10;79.70;;;;;;4089861;28;19921;-83
2024/01/09 04:56:51;;;;;;;;;;;-4.10;78.90;;;;;;4092182;28;19970;-80
2024/01/09 04:59:11;;;;;;;;;;;-4.20;78.90;;;;;;4088780;28;19942;-82
2024/01/09 05:01:30;;;;;;;;;;;-4.10;79.10;;;;;;4091196;28;19977;-83
2024/01/09 05:03:50;;;;;;;;;;;-4.20;79.80;;;;;;4094718;28;20076;-83
2024/01/09 05:06:09;;;;;;;;;;;-4.20;79.10;;;;;;4098165;28;20028;-82
2024/01/09 05:08:28;;;;;;;;;;;-4.00;79.30;;;;;;4118790;28;19941;-82
2024/01/09 05:10:47;;;;;;;;;;;-4.20;79.30;;;;;;4100104;28;20072;-84
2024/01/09 05:13:07;;;;;;;;;;;-4.20;79.30;;;;;;4096693;28;20325;-84
2024/01/09 05:15:27;;;;;;;;;;;-4.20;79.40;;;;;;4098038;28;19947;-84
2024/01/09 05:17:47;;;;;;;;;;;-4.00;79.70;;;;;;4096068;28;19929;-84
2024/01/09 05:20:06;;;;;;;;;;;-4.10;79.50;;;;;;4098218;28;20399;-83
2024/01/09 05:22:25;;;;;;;;;;;-4.10;79.60;;;;;;4111210;28;19937;-80
2024/01/09 05:24:44;;;;;;;;;;;-4.20;79.40;;;;;;4102686;28;19962;-80
2024/01/09 05:27:04;;;;;;;;;;;-4.10;79.60;;;;;;4102535;28;20056;-82
2024/01/09 05:29:23;;;;;;;;;;;-4.10;79.50;;;;;;4097250;28;19934;-82
2024/01/09 05:31:43;;;;;;;;;;;-4.20;79.40;;;;;;4122072;28;20019;-83
2024/01/09 05:34:02;;;;;;;;;;;-4.10;79.50;;;;;;4092789;28;20017;-81
2024/01/09 05:36:22;;;;;;;;;;;-4.10;79.40;;;;;;4094807;28;19929;-82
2024/01/09 05:38:41;;;;;;;;;;;-4.10;79.40;;;;;;4093376;28;20328;-82
2024/01/09 05:41:01;;;;;;;;;;;-4.10;79.40;;;;;;4092368;28;20086;-82
2024/01/09 05:43:20;;;;;;;;;;;-4.20;79.50;;;;;;4095716;28;19937;-82
2024/01/09 05:45:39;;;;;;;;;;;-4.20;79.40;;;;;;4094086;28;20683;-82
2024/01/09 05:48:01;;;;;;;;;;;-4.20;79.40;;;;;;4097730;28;25272;-80
2024/01/09 05:50:20;;;;;;;;;;;-4.20;79.50;;;;;;4094532;28;19946;-82
2024/01/09 05:52:39;;;;;;;;;;;-4.20;79.40;;;;;;4094561;28;19929;-82
2024/01/09 05:54:58;;;;;;;;;;;-4.20;79.50;;;;;;4106447;28;20045;-82
2024/01/09 05:57:18;;;;;;;;;;;-4.10;79.60;;;;;;4108180;28;19987;-82
2024/01/09 05:59:37;;;;;;;;;;;-4.20;79.50;;;;;;4094184;28;19966;-82
2024/01/09 06:01:57;;;;;;;;;;;-4.20;79.70;;;;;;4095270;28;19938;-81
2024/01/09 06:04:16;;;;;;;;;;;-4.10;79.70;;;;;;4096059;28;19925;-82
2024/01/09 06:06:35;;;;;;;;;;;-4.20;79.40;;;;;;4105034;28;19954;-82
2024/01/09 06:08:54;;;;;;;;;;;-4.20;79.40;;;;;;4093163;28;19973;-82
2024/01/09 06:11:14;;;;;;;;;;;-4.20;79.50;;;;;;4118959;28;19956;-82
2024/01/09 06:13:33;;;;;;;;;;;-4.30;79.40;;;;;;4095895;28;19926;-81
2024/01/09 06:15:52;;;;;;;;;;;-4.20;79.50;;;;;;4095367;28;19933;-83
2024/01/09 06:18:12;;;;;;;;;;;-4.30;79.40;;;;;;4093718;28;19925;-82
2024/01/09 06:20:31;;;;;;;;;;;-4.30;79.40;;;;;;4121403;28;20186;-83
2024/01/09 06:22:50;;;;;;;;;;;-4.30;79.40;;;;;;4109225;28;19996;-82
2024/01/09 06:25:10;;;;;;;;;;;-4.30;79.30;;;;;;4119581;28;19928;-82
2024/01/09 06:27:30;;;;;;;;;;;-4.40;79.20;;;;;;4096659;28;19933;-82
2024/01/09 06:29:49;;;;;;;;;;;-4.40;79.20;;;;;;4096267;28;19993;-82
2024/01/09 06:32:08;;;;;;;;;;;-4.40;79.10;;;;;;4105887;28;19978;-82
2024/01/09 06:34:27;;;;;;;;;;;-4.40;79.90;;;;;;4095831;28;19965;-82
2024/01/09 06:36:47;;;;;;;;;;;-4.40;79.80;;;;;;4121587;28;19921;-81
2024/01/09 06:39:06;;;;;;;;;;;-4.50;79.00;;;;;;4118627;28;19964;-82
2024/01/09 06:41:25;;;;;;;;;;;-4.50;79.70;;;;;;4097934;28;19925;-82
2024/01/09 06:43:44;;;;;;;;;;;-4.50;78.90;;;;;;4098124;28;20386;-81
2024/01/09 06:46:04;;;;;;;;;;;-4.60;78.80;;;;;;4097333;28;19946;-82
2024/01/09 06:48:23;;;;;;;;;;;-4.60;78.70;;;;;;4109942;28;19929;-81
2024/01/09 06:50:43;;;;;;;;;;;-4.60;78.70;;;;;;4112499;28;20060;-80
2024/01/09 06:53:02;;;;;;;;;;;-4.70;78.70;;;;;;4115197;28;19945;-81
2024/01/09 06:55:21;;;;;;;;;;;-4.70;78.70;;;;;;4121817;28;19944;-82
2024/01/09 06:57:41;;;;;;;;;;;-4.70;78.70;;;;;;4095205;28;19925;-82
2024/01/09 07:00:00;;;;;;;;;;;-4.80;78.60;;;;;;4101186;28;19917;-80
2024/01/09 07:02:21;;;;;;;;;;;-4.80;79.40;;;;;;4098231;28;20074;-81
2024/01/09 07:04:40;;;;;;;;;;;-4.80;78.70;;;;;;4088698;28;19972;-81
2024/01/09 07:06:59;;;;;;;;;;;-4.80;79.40;;;;;;4094462;29;20711;-83
2024/01/09 07:09:18;;;;;;;;;;;-4.90;79.40;;;;;;4094445;28;20078;-82
2024/01/09 07:11:37;;;;;;;;;;;-4.90;79.30;;;;;;4119739;28;19990;-82
2024/01/09 07:13:57;;;;;;;;;;;-4.90;78.60;;;;;;4090945;28;19921;-82
2024/01/09 07:16:16;;;;;;;;;;;-4.90;78.60;;;;;;4118805;28;20559;-83
2024/01/09 07:18:35;;;;;;;;;;;-4.90;78.70;;;;;;4094111;28;19929;-83
2024/01/09 07:20:54;;;;;;;;;;;-5.00;78.50;;;;;;4115647;28;20422;-81
2024/01/09 07:23:14;;;;;;;;;;;-5.00;78.60;;;;;;4095117;28;19926;-83
2024/01/09 07:25:33;;;;;;;;;;;-5.00;78.60;;;;;;4105425;28;20571;-82
2024/01/09 07:27:53;;;;;;;;;;;-5.00;78.70;;;;;;4094828;28;19934;-80
2024/01/09 07:30:12;;;;;;;;;;;-5.00;78.70;;;;;;4093617;28;19921;-83
2024/01/09 07:32:32;;;;;;;;;;;-5.00;78.80;;;;;;4107572;28;19997;-82
2024/01/09 07:34:51;;;;;;;;;;;-5.00;79.60;;;;;;4095877;28;19999;-81
2024/01/09 07:37:11;;;;;;;;;;;-5.00;79.60;;;;;;4104382;28;19929;-81
2024/01/09 07:39:30;;;;;;;;;;;-5.00;79.70;;;;;;4091779;28;19925;-81
2024/01/09 07:41:49;;;;;;;;;;;-5.00;78.90;;;;;;4091816;28;19930;-82
2024/01/09 07:44:08;;;;;;;;;;;-5.00;78.90;;;;;;4094739;28;19945;-82
2024/01/09 07:46:28;;;;;;;;;;;-5.00;79.00;;;;;;4093757;28;19922;-81
2024/01/09 07:48:47;;;;;;;;;;;-5.00;79.00;;;;;;4106182;28;19925;-81
2024/01/09 07:51:06;;;;;;;;;;;-5.00;79.00;;;;;;4105455;28;20016;-83
2024/01/09 07:53:26;;;;;;;;;;;-5.00;79.00;;;;;;4118339;28;19952;-81
2024/01/09 07:55:45;;;;;;;;;;;-5.10;78.90;;;;;;4094660;28;19929;-82
2024/01/09 07:58:05;;;;;;;;;;;-5.00;79.10;;;;;;4092153;28;19973;-82
2024/01/09 08:00:25;;;;;;;;;;;-5.00;79.00;;;;;;4094925;28;19939;-82
2024/01/09 08:02:44;;;;;;;;;;;-5.00;79.00;;;;;;4089905;28;19926;-80
2024/01/09 08:05:04;;;;;;;;;;;-5.00;79.70;;;;;;4094371;28;19969;-82
2024/01/09 08:07:23;;;;;;;;;;;-5.00;79.00;;;;;;4094127;28;19946;-82
2024/01/09 08:09:43;;;;;;;;;;;-5.10;79.00;;;;;;4093864;28;19926;-80
2024/01/09 08:12:02;;;;;;;;;;;-5.10;79.00;;;;;;4096501;28;20017;-81
2024/01/09 08:14:21;;;;;;;;;;;-5.10;79.00;;;;;;4093993;28;19958;-80
2024/01/09 08:16:41;;;;;;;;;;;-5.10;79.10;;;;;;4101556;28;19974;-83
2024/01/09 08:19:00;;;;;;;;;;;-5.10;79.20;;;;;;4099211;28;19973;-81
2024/01/09 08:21:19;;;;;;;;;;;-5.10;79.20;;;;;;4113195;28;20487;-81
2024/01/09 08:23:39;;;;;;;;;;;-5.10;79.30;;;;;;4101861;28;19922;-83
2024/01/09 08:25:58;;;;;;;;;;;-5.10;79.30;;;;;;4098584;28;19921;-82
2024/01/09 08:28:17;;;;;;;;;;;-5.00;79.50;;;;;;4098400;28;19998;-83
2024/01/09 08:30:36;;;;;;;;;;;-5.00;79.60;;;;;;4093370;28;20391;-83
2024/01/09 08:32:56;;;;;;;;;;;-5.00;80.50;;;;;;4095161;28;20392;-84
2024/01/09 08:35:24;;;;;;;;;;;-4.90;80.60;;;;;;4110908;28;20013;-82
2024/01/09 08:37:43;;;;;;;;;;;-4.90;79.90;;;;;;4094353;28;20372;-84
2024/01/09 08:40:03;;;;;;;;;;;-4.80;80.00;;;;;;4109558;28;20347;-82
2024/01/09 08:42:22;;;;;;;;;;;-4.80;80.10;;;;;;4096038;28;20027;-84
2024/01/09 08:44:41;;;;;;;;;;;-4.80;80.10;;;;;;4111793;28;19943;-81
2024/01/09 08:47:01;;;;;;;;;;;-4.70;80.30;;;;;;4106205;28;19969;-81
2024/01/09 08:49:20;;;;;;;;;;;-4.70;81.10;;;;;;4097338;28;21557;-83
2024/01/09 08:51:39;;;;;;;;;;;-4.60;81.30;;;;;;4105865;28;19925;-82
2024/01/09 08:53:58;;;;;;;;;;;-4.50;80.70;;;;;;4100128;28;20000;-84
2024/01/09 08:56:18;;;;;;;;;;;-4.40;80.80;;;;;;4117893;28;19993;-81
2024/01/09 08:58:37;;;;;;;;;;;-4.40;80.80;;;;;;4093782;28;19933;-82
2024/01/09 09:00:56;;;;;;;;;;;-4.30;81.00;;;;;;4121924;28;20006;-82
2024/01/09 09:03:16;;;;;;;;;;;-4.20;81.00;;;;;;4097916;28;20001;-83
2024/01/09 09:05:35;;;;;;;;;;;-4.20;81.00;;;;;;4100627;28;19933;-82
2024/01/09 09:07:55;;;;;;;;;;;-4.10;81.10;;;;;;4100150;28;19926;-83
2024/01/09 09:10:14;;;;;;;;;;;-4.00;81.20;;;;;;4101153;28;20022;-83
2024/01/09 09:12:34;;;;;;;;;;;-3.90;81.20;;;;;;4099747;28;19941;-83
2024/01/09 09:14:53;;;;;;;;;;;-3.90;81.10;;;;;;4100373;28;19953;-82
2024/01/09 09:17:14;;;;;;;;;;;-3.90;81.80;;;;;;4125155;28;19933;-84
2024/01/09 09:19:33;;;;;;;;;;;-3.80;81.10;;;;;;4098543;28;19921;-82
2024/01/09 09:21:53;;;;;;;;;;;-3.70;81.80;;;;;;4101969;28;19993;-84
2024/01/09 09:24:12;;;;;;;;;;;-3.70;81.10;;;;;;4100322;28;19921;-83
2024/01/09 09:26:32;;;;;;;;;;;-3.70;81.70;;;;;;4100319;28;19933;-83
2024/01/09 09:28:51;;;;;;;;;;;-3.60;81.10;;;;;;4111555;28;21878;-83
2024/01/09 09:31:11;;;;;;;;;;;-3.50;81.30;;;;;;4099405;28;19934;-84
2024/01/09 09:33:33;;;;;;;;;;;-3.50;81.30;;;;;;4101461;29;19986;-84
2024/01/09 09:35:52;;;;;;;;;;;-3.40;81.30;;;;;;4101799;28;19918;-83
2024/01/09 09:38:13;;;;;;;;;;;-3.20;81.30;;;;;;4113678;28;19974;-83
2024/01/09 09:40:32;;;;;;;;;;;-3.40;81.20;;;;;;4100489;28;20408;-83
2024/01/09 09:42:53;;;;;;;;;;;-3.10;81.30;;;;;;4100483;28;19926;-84
2024/01/09 09:45:14;;;;;;;;;;;-3.30;81.10;;;;;;4102431;28;19961;-83
2024/01/09 09:47:33;;;;;;;;;;;-3.20;81.20;;;;;;4095755;28;19949;-83
2024/01/09 09:49:53;;;;;;;;;;;-3.20;81.20;;;;;;4101156;28;19941;-83
2024/01/09 09:52:13;;;;;;;;;;;-3.10;81.30;;;;;;4099111;28;20083;-83
2024/01/09 09:54:33;;;;;;;;;;;-3.10;81.30;;;;;;4102048;28;19925;-81
2024/01/09 09:56:52;;;;;;;;;;;-3.00;81.40;;;;;;4127278;28;20141;-83
2024/01/09 09:59:12;;;;;;;;;;;-3.00;81.40;;;;;;4103961;28;19917;-83
2024/01/09 10:01:32;;;;;;;;;;;-2.90;81.50;;;;;;4115347;28;19925;-82
2024/01/09 10:03:53;;;;;;;;;;;-2.80;81.50;;;;;;4090124;28;19932;-82
2024/01/09 10:06:14;;;;;;;;;;;-2.80;82.30;;;;;;4102127;28;19978;-84
2024/01/09 10:08:34;;;;;;;;;;;-2.70;81.60;;;;;;4104350;28;19938;-84
2024/01/09 10:10:54;;;;;;;;;;;-2.70;81.50;;;;;;4104843;28;19924;-83
2024/01/09 10:13:13;;;;;;;;;;;-2.60;81.60;;;;;;4103742;28;19966;-83
2024/01/09 10:15:33;;;;;;;;;;;-2.60;81.50;;;;;;4100244;28;20013;-83
2024/01/09 10:17:52;;;;;;;;;;;-2.40;81.60;;;;;;4101855;28;19960;-83
2024/01/09 10:20:12;;;;;;;;;;;-2.40;81.70;;;;;;4105654;28;20212;-84
2024/01/09 10:22:35;;;;;;;;;;;-2.40;82.30;;;;;;4118157;28;19946;-81
2024/01/09 10:24:54;;;;;;;;;;;-2.40;81.60;;;;;;4101403;28;19941;-82
2024/01/09 10:27:13;;;;;;;;;;;-2.30;81.60;;;;;;4095509;28;19937;-82
2024/01/09 10:29:14;;;;;;;;;;;-2.30;81.60;;;;;;4110141;28;19926;-82
2024/01/09 10:31:14;;;;;;;;;;;-2.20;81.70;;;;;;4098160;28;20209;-83
2024/01/09 10:33:15;;;;;;;;;;;-2.20;81.60;;;;;;4092648;28;19919;-82
2024/01/09 10:35:15;;;;;;;;;;;-2.10;81.60;;;;;;4091478;28;20084;-83
2024/01/09 10:37:18;;;;;;;;;;;-2.10;81.50;;;;;;4125314;28;20442;-83
2024/01/09 10:39:29;;;;;;;;;;;-2.10;81.40;;;;;;4128980;28;20835;-83
2024/01/09 10:41:49;;;;;;;;;;;-2.00;81.60;;;;;;4116612;28;19929;-83
2024/01/09 10:44:13;;;;;;;;;;;-2.00;81.60;;;;;;4118070;28;19929;-85
2024/01/09 10:46:34;;;;;;;;;;;-1.90;81.60;;;;;;4112916;28;19910;-83
2024/01/09 10:48:56;;;;;;;;;;;-1.90;81.70;;;;;;4103170;28;19985;-83
2024/01/09 10:51:17;;;;;;;;;;;-1.80;81.80;;;;;;4101416;28;19919;-84
2024/01/09 10:53:40;;;;;;;;;;;-1.80;81.80;;;;;;4117296;28;19922;-83
2024/01/09 10:56:03;;;;;;;;;;;-1.70;81.80;;;;;;4106176;28;20441;-84
2024/01/09 10:58:27;;;;;;;;;;;-1.70;81.60;;;;;;4102168;28;20348;-84
2024/01/09 11:00:28;;;;;;;;;;;-1.70;81.60;;;;;;4138175;28;19918;-85
2024/01/09 11:02:48;;;;;;;;;;;-1.60;81.60;;;;;;4132602;28;19921;-84
2024/01/09 11:05:03;;;;;;;;;;;-1.60;81.50;;;;;;4124808;28;20452;-84
2024/01/09 11:07:24;;;;;;;;;;;-1.50;81.60;;;;;;4106333;28;19927;-84
2024/01/09 11:09:45;;;;;;;;;;;-1.50;82.20;;;;;;4108022;28;19902;-84
2024/01/09 11:12:06;;;;;;;;;;;-1.50;81.30;;;;;;4108189;28;19986;-86
2024/01/09 11:14:24;;;;;;;;;;;-1.40;81.40;;;;;;4108090;28;19919;-84
2024/01/09 11:16:51;;;;;;;;;;;-1.30;81.20;;;;;;4107871;28;19921;-84
2024/01/09 11:19:13;;;;;;;;;;;-1.40;81.10;;;;;;4108608;28;19950;-84
2024/01/09 11:21:33;;;;;;;;;;;-1.20;81.20;;;;;;4107628;28;19922;-84
2024/01/09 11:23:59;;;;;;;;;;;-1.30;81.10;;;;;;4119863;28;19918;-85
2024/01/09 11:26:20;;;;;;;;;;;-1.10;81.00;;;;;;4106729;28;19929;-85
2024/01/09 11:28:45;;;;;;;;;;;-1.10;81.00;;;;;;4105024;28;19961;-84
2024/01/09 11:31:06;;;;;;;;;;;-1.20;81.60;;;;;;4106380;28;19919;-84
2024/01/09 11:33:33;;;;;;;;;;;-1.20;80.90;;;;;;4106750;28;19910;-85
2024/01/09 11:36:11;;;;;;;;;;;-0.90;81.20;;;;;;4107181;28;19942;-85
2024/01/09 11:38:42;;;;;;;;;;;-1.10;81.00;;;;;;4109078;28;19976;-85
2024/01/09 11:41:04;;;;;;;;;;;-1.10;81.00;;;;;;4102764;28;19973;-85
2024/01/09 11:43:27;;;;;;;;;;;-1.00;81.00;;;;;;4103319;28;19918;-86
2024/01/09 11:45:48;;;;;;;;;;;-1.00;81.00;;;;;;4105484;28;19938;-86
2024/01/09 11:48:08;;;;;;;;;;;-1.00;81.20;;;;;;4105468;28;19922;-87
2024/01/09 11:50:29;;;;;;;;;;;-0.90;81.30;;;;;;4103123;28;19961;-86
2024/01/09 11:52:49;;;;;;;;;;;-1.00;81.20;;;;;;4117628;28;19922;-86
2024/01/09 11:55:10;;;;;;;;;;;-0.90;81.10;;;;;;4105008;28;20509;-85
2024/01/09 11:57:31;;;;;;;;;;;-0.80;81.10;;;;;;4106560;28;19923;-86
2024/01/09 11:59:53;;;;;;;;;;;-0.80;81.00;;;;;;4107328;28;19981;-87
2024/01/09 12:02:13;;;;;;;;;;;-0.80;80.90;;;;;;4107936;28;19950;-85
2024/01/09 12:04:34;;;;;;;;;;;-0.60;81.00;;;;;;4111875;28;19907;-85
2024/01/09 12:06:54;;;;;;;;;;;-0.70;80.90;;;;;;4116274;28;19958;-84
2024/01/09 12:09:17;;;;;;;;;;;-0.70;80.90;;;;;;4117192;28;19923;-84
2024/01/09 12:11:38;;;;;;;;;;;-0.50;81.00;;;;;;4111233;28;19923;-84
2024/01/09 12:14:00;;;;;;;;;;;-0.50;81.00;;;;;;4118201;28;19915;-86
2024/01/09 12:16:22;;;;;;;;;;;-0.60;80.90;;;;;;4106476;28;19978;-86
2024/01/09 12:18:55;;;;;;;;;;;-0.30;81.10;;;;;;4104361;28;19930;-85
2024/01/09 12:21:16;;;;;;;;;;;-0.50;81.00;;;;;;4106060;28;19926;-85
2024/01/09 12:23:36;;;;;;;;;;;-0.40;81.20;;;;;;4099807;28;19995;-86
2024/01/09 12:25:57;;;;;;;;;;;-0.30;81.30;;;;;;4102227;28;19915;-85
2024/01/09 12:28:18;;;;;;;;;;;-0.40;81.20;;;;;;4118585;28;19961;-84
2024/01/09 12:30:38;;;;;;;;;;;-0.20;81.20;;;;;;4099110;28;21001;-85
2024/01/09 12:32:59;;;;;;;;;;;-0.30;81.10;;;;;;4116048;28;19942;-85
2024/01/09 12:35:20;;;;;;;;;;;-0.10;81.10;;;;;;4104141;28;19918;-85
2024/01/09 12:37:41;;;;;;;;;;;0.00;81.10;;;;;;4100675;28;19910;-84
2024/01/09 12:40:01;;;;;;;;;;;-0.20;81.00;;;;;;4102043;28;19918;-84
2024/01/09 12:42:22;;;;;;;;;;;-0.20;80.90;;;;;;4100506;28;19986;-83
2024/01/09 12:44:43;;;;;;;;;;;-0.20;80.90;;;;;;4104696;28;20313;-85
2024/01/09 12:47:03;;;;;;;;;;;-0.10;80.90;;;;;;4134954;28;20032;-85
2024/01/09 12:49:22;;;;;;;;;;;-0.10;80.90;;;;;;4110021;28;20227;-85
2024/01/09 12:51:41;;;;;;;;;;;0.10;81.00;;;;;;4100982;28;19922;-85
2024/01/09 12:54:02;;;;;;;;;;;-0.10;80.80;;;;;;4098605;28;19926;-84
2024/01/09 12:56:22;;;;;;;;;;;0.10;81.00;;;;;;4102012;28;19930;-84
2024/01/09 12:58:42;;;;;;;;;;;0.00;80.70;;;;;;4113515;28;19928;-84
2024/01/09 13:01:05;;;;;;;;;;;-0.10;80.50;;;;;;4101339;28;19929;-85
2024/01/09 13:03:24;;;;;;;;;;;0.10;80.60;;;;;;4097834;28;19957;-85
2024/01/09 13:05:44;;;;;;;;;;;0.00;80.50;;;;;;4111239;28;20002;-84
2024/01/09 13:08:03;;;;;;;;;;;0.00;80.60;;;;;;4100164;28;20089;-83
2024/01/09 13:10:22;;;;;;;;;;;0.00;80.60;;;;;;4099864;28;19962;-85
2024/01/09 13:12:42;;;;;;;;;;;0.00;80.60;;;;;;4119996;28;19945;-84
2024/01/09 13:15:01;;;;;;;;;;;0.10;80.70;;;;;;4098329;28;19925;-84
2024/01/09 13:17:22;;;;;;;;;;;0.20;80.70;;;;;;4097850;28;20038;-84
2024/01/09 13:19:42;;;;;;;;;;;0.10;80.70;;;;;;4100254;28;20010;-84
2024/01/09 13:22:01;;;;;;;;;;;0.10;80.70;;;;;;4095856;28;19945;-85
2024/01/09 13:24:23;;;;;;;;;;;0.20;80.70;;;;;;4100661;28;19925;-85
2024/01/09 13:26:43;;;;;;;;;;;0.20;80.70;;;;;;4099707;28;19964;-85
2024/01/09 13:29:03;;;;;;;;;;;0.20;80.60;;;;;;4096802;29;19942;-84
2024/01/09 13:31:22;;;;;;;;;;;0.20;81.40;;;;;;4096451;28;19964;-84